Terminal Aerodrome Forecast
Issued by NWS

Home | Current Version | Previous Version | Text Only | Print | Product List | Glossary On
Versions: 1 2 3 4 5 6 7 8 9 10 11 12 13 14 15 16 17 18 19 20 21 22 23 24 25 26
000
FTUS45 KRIW 302334
TAFPNA
TAF
KPNA 302334Z 0100/0124 29008KT P6SM VCTS SCT070CB SCT110
     FM010200 VRB05KT P6SM SCT070
     FM011000 VRB04KT P6SM VCFG FEW005
     FM011500 VRB06KT P6SM FEW050
     FM012000 22010G18KT P6SM VCSH SCT060
      AMD LTD TO CLD VIS AND WIND=

USA.gov is the U.S. government's official web portal to all federal, state and local government web resources and services.